createdAt,value
2023-03-18T00:01:05.652Z,91.80
2023-03-18T00:03:38.876Z,91.90
2023-03-18T00:06:14.129Z,92.20
2023-03-18T00:08:48.506Z,92.60
2023-03-18T00:11:21.648Z,92.50
2023-03-18T00:13:54.783Z,92.40
2023-03-18T00:16:27.258Z,92.40
2023-03-18T00:18:59.639Z,92.50
2023-03-18T00:21:32.371Z,92.60
2023-03-18T00:24:05.218Z,93.30
2023-03-18T00:26:37.825Z,93.40
2023-03-18T00:29:10.915Z,93.10
2023-03-18T00:31:43.728Z,92.80
2023-03-18T00:34:16.637Z,92.90
2023-03-18T00:39:29.314Z,93.10
2023-03-18T00:42:08.110Z,93.40
2023-03-18T00:47:13.722Z,93.60
2023-03-18T00:49:46.343Z,93.60
2023-03-18T00:52:19.625Z,93.90
2023-03-18T00:54:52.444Z,94.10
2023-03-18T00:57:24.539Z,94.60
2023-03-18T00:59:59.592Z,94.40
2023-03-18T01:02:32.137Z,94.50
2023-03-18T01:05:07.217Z,94.60
2023-03-18T01:10:14.923Z,94.30
2023-03-18T01:12:47.177Z,94.30
2023-03-18T01:15:22.824Z,94.50
2023-03-18T01:17:56.912Z,94.30
2023-03-18T01:20:31.986Z,94.20
2023-03-18T01:23:06.218Z,94.40
2023-03-18T01:25:39.840Z,94.40
2023-03-18T01:28:13.755Z,94.40
2023-03-18T01:30:46.572Z,94.50
2023-03-18T01:33:20.471Z,94.50
2023-03-18T01:35:58.464Z,94.80
2023-03-18T01:38:34.888Z,94.60
2023-03-18T01:41:17.822Z,94.70
2023-03-18T01:46:39.786Z,94.70
2023-03-18T01:49:29.826Z,94.70
2023-03-18T01:52:20.698Z,94.60
2023-03-18T01:55:01.466Z,94.50
2023-03-18T01:57:35.450Z,94.70
2023-03-18T02:00:11.382Z,94.90
2023-03-18T02:02:49.251Z,94.90
2023-03-18T02:07:57.109Z,95.10
2023-03-18T02:10:32.103Z,95.00
2023-03-18T02:13:10.462Z,94.90
2023-03-18T02:16:00.474Z,95.40
2023-03-18T02:18:46.811Z,95.50
2023-03-18T02:21:54.105Z,95.60
2023-03-18T02:28:03.443Z,96.70
2023-03-18T02:30:51.499Z,96.70
2023-03-18T02:33:31.752Z,96.70
2023-03-18T02:36:15.181Z,96.80
2023-03-18T02:38:49.194Z,95.90
2023-03-18T02:41:34.680Z,95.70
2023-03-18T02:44:07.733Z,95.40
2023-03-18T02:46:59.512Z,95.00
2023-03-18T02:49:33.030Z,95.00
2023-03-18T02:52:06.855Z,94.90
2023-03-18T02:54:41.392Z,94.90
2023-03-18T02:57:13.363Z,94.80
2023-03-18T03:02:45.866Z,94.70
2023-03-18T03:05:18.676Z,95.00
2023-03-18T03:07:51.097Z,94.60
2023-03-18T03:10:23.443Z,94.60
2023-03-18T03:12:56.169Z,94.60
2023-03-18T03:15:29.770Z,94.50
2023-03-18T03:18:04.642Z,94.50
2023-03-18T03:20:39.281Z,93.90
2023-03-18T03:23:15.880Z,94.20
2023-03-18T03:25:47.966Z,94.80
2023-03-18T03:28:21.673Z,97.00
2023-03-18T03:30:55.701Z,98.50
2023-03-18T03:36:22.439Z,99.10
2023-03-18T03:38:55.423Z,99.90
2023-03-18T03:41:28.678Z,99.90
2023-03-18T03:44:01.539Z,99.30
2023-03-18T03:49:07.069Z,99.90
2023-03-18T03:51:39.520Z,99.90
2023-03-18T03:54:13.249Z,99.90
2023-03-18T03:56:46.480Z,99.90
2023-03-18T03:59:19.271Z,99.90
2023-03-18T04:02:09.694Z,99.90
2023-03-18T04:04:42.588Z,99.90
2023-03-18T04:07:23.746Z,99.90
2023-03-18T04:09:56.089Z,99.90
2023-03-18T04:12:29.827Z,99.90
2023-03-18T04:15:07.810Z,99.90
2023-03-18T04:17:41.561Z,99.90
2023-03-18T04:20:14.001Z,99.90
2023-03-18T04:27:57.507Z,99.90
2023-03-18T04:30:31.149Z,99.90
2023-03-18T04:33:12.853Z,99.90
2023-03-18T04:35:48.000Z,99.90
2023-03-18T04:38:21.953Z,99.90
2023-03-18T04:43:29.581Z,99.90
2023-03-18T04:46:02.410Z,99.90
2023-03-18T04:48:34.892Z,99.90
2023-03-18T04:51:10.761Z,99.90
2023-03-18T04:53:43.610Z,99.90
2023-03-18T04:56:17.491Z,99.90
2023-03-18T04:58:54.713Z,99.90
2023-03-18T05:01:34.272Z,99.90
2023-03-18T05:04:07.128Z,99.90
2023-03-18T05:06:54.244Z,99.90
2023-03-18T05:09:34.157Z,99.90
2023-03-18T05:12:19.498Z,99.90
2023-03-18T05:14:52.412Z,99.90
2023-03-18T05:20:04.734Z,99.90
2023-03-18T05:22:37.261Z,99.90
2023-03-18T05:27:51.425Z,99.90
2023-03-18T05:30:33.315Z,99.90
2023-03-18T05:36:02.470Z,99.90
2023-03-18T05:38:40.685Z,99.90
2023-03-18T05:46:42.729Z,99.90
2023-03-18T05:49:23.575Z,99.90
2023-03-18T05:52:17.796Z,99.90
2023-03-18T06:00:09.959Z,99.90
2023-03-18T06:02:48.772Z,99.90
2023-03-18T06:05:24.741Z,99.90
2023-03-18T06:07:57.915Z,99.90
2023-03-18T06:10:30.138Z,99.90
2023-03-18T06:13:02.784Z,99.90
2023-03-18T06:15:34.818Z,99.90
2023-03-18T06:18:08.098Z,99.90
2023-03-18T06:23:14.941Z,99.90
2023-03-18T06:25:47.093Z,99.90
2023-03-18T06:28:21.199Z,99.90
2023-03-18T06:30:58.989Z,99.90
2023-03-18T06:38:38.981Z,99.90
2023-03-18T06:41:13.542Z,99.90
2023-03-18T06:43:56.093Z,99.90
2023-03-18T06:46:29.407Z,99.90
2023-03-18T06:49:05.354Z,99.90
2023-03-18T06:51:42.564Z,99.90
2023-03-18T06:54:15.443Z,99.90
2023-03-18T06:56:47.436Z,99.90
2023-03-18T07:04:30.901Z,99.90
2023-03-18T07:07:06.247Z,99.90
2023-03-18T07:09:41.080Z,99.90
2023-03-18T07:12:14.381Z,99.90
2023-03-18T07:14:48.950Z,99.90
2023-03-18T07:17:24.342Z,99.90
2023-03-18T07:19:57.575Z,99.90
2023-03-18T07:22:30.942Z,99.90
2023-03-18T07:25:03.496Z,99.90
2023-03-18T07:27:36.312Z,99.90
2023-03-18T07:30:10.159Z,99.90
2023-03-18T07:32:43.224Z,99.90
2023-03-18T07:37:48.955Z,99.90
2023-03-18T07:42:54.637Z,99.90
2023-03-18T07:45:30.892Z,99.90
2023-03-18T07:48:05.910Z,99.90
2023-03-18T07:55:44.717Z,99.90
2023-03-18T08:03:23.142Z,99.90
2023-03-18T08:08:30.400Z,99.70
2023-03-18T08:13:55.403Z,98.60
2023-03-18T08:16:27.744Z,97.80
2023-03-18T08:19:00.561Z,97.30
2023-03-18T08:21:32.568Z,96.30
2023-03-18T08:24:05.689Z,94.90
2023-03-18T08:26:37.626Z,93.70
2023-03-18T08:29:10.356Z,92.90
2023-03-18T08:31:42.926Z,91.90
2023-03-18T08:34:16.749Z,90.80
2023-03-18T08:36:48.785Z,90.60
2023-03-18T08:41:55.167Z,88.30
2023-03-18T08:44:27.853Z,88.10
2023-03-18T08:47:01.718Z,86.60
2023-03-18T08:52:07.272Z,83.70
2023-03-18T08:54:40.129Z,83.40
2023-03-18T08:57:13.074Z,81.70
2023-03-18T08:59:44.950Z,80.10
2023-03-18T09:02:18.748Z,78.20
2023-03-18T09:04:51.164Z,77.90
2023-03-18T09:07:23.865Z,76.20
2023-03-18T09:09:55.757Z,73.70
2023-03-18T09:12:28.987Z,72.30
2023-03-18T09:15:02.070Z,71.20
2023-03-18T09:17:50.962Z,69.90
2023-03-18T09:20:28.328Z,68.40
2023-03-18T09:23:01.510Z,68.30
2023-03-18T09:28:07.612Z,68.10
2023-03-18T09:30:41.070Z,68.60
2023-03-18T09:33:13.927Z,65.10
2023-03-18T09:35:46.778Z,65.50
2023-03-18T09:38:20.046Z,65.80
2023-03-18T09:41:25.629Z,65.50
2023-03-18T09:44:37.084Z,66.40
2023-03-18T09:47:31.653Z,64.80
2023-03-18T09:50:18.397Z,64.40
2023-03-18T09:53:05.990Z,62.80
2023-03-18T09:55:44.121Z,64.00
2023-03-18T09:58:43.324Z,63.60
2023-03-18T10:01:16.679Z,63.50
2023-03-18T10:03:58.479Z,64.30
2023-03-18T10:06:31.704Z,64.70
2023-03-18T10:09:19.752Z,65.10
2023-03-18T10:12:00.418Z,64.10
2023-03-18T10:14:45.291Z,64.30
2023-03-18T10:17:47.305Z,63.70
2023-03-18T10:20:20.566Z,63.10
2023-03-18T10:23:29.952Z,63.10
2023-03-18T10:26:16.057Z,62.90
2023-03-18T10:29:35.648Z,62.20
2023-03-18T10:32:48.642Z,62.20
2023-03-18T10:35:39.054Z,62.70
2023-03-18T10:38:41.777Z,63.60
2023-03-18T10:41:29.059Z,63.20
2023-03-18T10:44:13.868Z,63.20
2023-03-18T10:46:48.205Z,62.90
2023-03-18T10:49:29.489Z,64.20
2023-03-18T10:52:16.156Z,62.80
2023-03-18T10:54:52.823Z,63.60
2023-03-18T11:02:38.756Z,64.60
2023-03-18T11:05:23.237Z,65.00
2023-03-18T11:08:09.036Z,64.90
2023-03-18T11:10:46.520Z,65.40
2023-03-18T11:13:20.552Z,65.90
2023-03-18T11:15:57.106Z,64.40
2023-03-18T11:21:05.100Z,63.80
2023-03-18T11:23:58.323Z,64.70
2023-03-18T11:26:31.076Z,65.00
2023-03-18T11:29:18.964Z,65.40
2023-03-18T11:32:00.045Z,65.30
2023-03-18T11:34:35.473Z,65.80
2023-03-18T11:37:13.525Z,65.00
2023-03-18T11:39:45.999Z,65.20
2023-03-18T11:42:23.483Z,64.30
2023-03-18T11:45:01.354Z,64.50
2023-03-18T11:47:36.945Z,64.00
2023-03-18T11:50:26.163Z,66.20
2023-03-18T11:53:18.161Z,65.70
2023-03-18T11:56:03.707Z,66.80
2023-03-18T11:59:04.394Z,65.30
2023-03-18T12:02:11.496Z,65.60
2023-03-18T12:05:14.984Z,66.10
2023-03-18T12:07:52.616Z,67.80
2023-03-18T12:10:37.942Z,67.40
2023-03-18T12:13:39.496Z,66.30
2023-03-18T12:17:04.590Z,66.00
2023-03-18T12:20:25.609Z,65.50
2023-03-18T12:23:25.755Z,65.90
2023-03-18T12:26:08.837Z,66.60
2023-03-18T12:29:12.462Z,67.00
2023-03-18T12:35:10.150Z,67.00
2023-03-18T12:38:23.212Z,66.70
2023-03-18T12:41:18.253Z,67.20
2023-03-18T12:44:06.787Z,67.00
2023-03-18T12:47:00.312Z,67.60
2023-03-18T12:49:35.650Z,67.60
2023-03-18T12:52:11.593Z,67.10
2023-03-18T12:55:06.211Z,67.40
2023-03-18T12:58:03.978Z,67.80
2023-03-18T13:00:53.386Z,67.90
2023-03-18T13:03:40.871Z,68.30
2023-03-18T13:06:43.645Z,68.70
2023-03-18T13:09:34.614Z,68.40
2023-03-18T13:12:29.133Z,68.80
2023-03-18T13:15:22.964Z,68.20
2023-03-18T13:18:03.237Z,68.50
2023-03-18T13:20:38.809Z,68.40
2023-03-18T13:23:16.978Z,69.00
2023-03-18T13:26:22.242Z,69.30
2023-03-18T13:29:39.121Z,69.10
2023-03-18T13:32:49.724Z,68.40
2023-03-18T13:35:53.276Z,68.50
2023-03-18T13:38:57.799Z,68.40
2023-03-18T13:42:13.120Z,69.40
2023-03-18T13:44:51.882Z,69.40
2023-03-18T13:47:24.792Z,69.30
2023-03-18T13:50:26.586Z,69.50
2023-03-18T13:53:02.563Z,69.30
2023-03-18T13:58:30.778Z,69.60
2023-03-18T14:01:25.173Z,69.20
2023-03-18T14:04:02.014Z,69.30
2023-03-18T14:06:56.215Z,70.20
2023-03-18T14:09:35.957Z,69.60
2023-03-18T14:12:33.033Z,69.60
2023-03-18T14:15:12.907Z,69.70
2023-03-18T14:17:59.232Z,69.70
2023-03-18T14:20:42.569Z,69.20
2023-03-18T14:23:38.594Z,68.40
2023-03-18T14:26:26.883Z,70.00
2023-03-18T14:29:09.251Z,69.30
2023-03-18T14:34:18.988Z,70.10
2023-03-18T14:36:54.698Z,70.30
2023-03-18T14:39:38.160Z,70.70
2023-03-18T14:42:24.124Z,70.90
2023-03-18T14:45:07.450Z,71.10
2023-03-18T14:47:46.673Z,70.20
2023-03-18T14:50:34.158Z,71.60
2023-03-18T14:53:35.357Z,71.80
2023-03-18T14:56:25.672Z,71.80
2023-03-18T14:58:57.589Z,70.50
2023-03-18T15:07:37.227Z,69.40
2023-03-18T15:10:21.620Z,69.10
2023-03-18T15:13:15.676Z,68.80
2023-03-18T15:15:49.114Z,68.90
2023-03-18T15:18:32.943Z,69.10
2023-03-18T15:21:19.979Z,69.30
2023-03-18T15:23:56.008Z,69.40
2023-03-18T15:26:40.324Z,69.40
2023-03-18T15:29:36.913Z,68.70
2023-03-18T15:32:32.528Z,69.00
2023-03-18T15:35:19.925Z,68.50
2023-03-18T15:38:18.407Z,67.90
2023-03-18T15:40:55.231Z,68.40
2023-03-18T15:43:31.528Z,67.50
2023-03-18T15:46:14.584Z,67.80
2023-03-18T15:48:56.713Z,68.60
2023-03-18T15:54:30.051Z,68.30
2023-03-18T15:57:14.129Z,69.00
2023-03-18T16:02:20.882Z,69.40
2023-03-18T16:07:28.704Z,69.40
2023-03-18T16:10:00.985Z,68.80
2023-03-18T16:12:34.709Z,68.90
2023-03-18T16:15:10.942Z,69.20
2023-03-18T16:18:06.504Z,68.80
2023-03-18T16:25:57.395Z,69.00
2023-03-18T16:31:02.821Z,69.70
2023-03-18T16:38:46.005Z,69.60
2023-03-18T16:41:19.523Z,69.50
2023-03-18T16:43:51.418Z,70.20
2023-03-18T16:46:25.267Z,70.50
2023-03-18T16:49:32.306Z,71.00
2023-03-18T16:54:37.460Z,71.50
2023-03-18T16:57:18.286Z,71.40
2023-03-18T16:59:55.726Z,71.50
2023-03-18T17:02:34.679Z,71.60
2023-03-18T17:05:09.243Z,71.90
2023-03-18T17:07:41.848Z,70.20
2023-03-18T17:10:16.786Z,71.70
2023-03-18T17:13:00.192Z,72.00
2023-03-18T17:15:38.116Z,71.60
2023-03-18T17:18:17.260Z,72.10
2023-03-18T17:20:50.144Z,71.80
2023-03-18T17:23:27.161Z,71.80
2023-03-18T17:26:01.332Z,72.40
2023-03-18T17:28:39.393Z,74.30
2023-03-18T17:31:13.482Z,74.60
2023-03-18T17:44:23.869Z,76.50
2023-03-18T17:52:03.046Z,79.40
2023-03-18T17:54:36.419Z,80.50
2023-03-18T17:57:15.549Z,77.60
2023-03-18T17:59:47.551Z,81.00
2023-03-18T18:02:21.530Z,80.00
2023-03-18T18:04:53.495Z,82.00
2023-03-18T18:12:34.393Z,86.10
2023-03-18T18:15:17.983Z,87.50
2023-03-18T18:20:24.472Z,87.50
2023-03-18T18:22:57.270Z,88.80
2023-03-18T18:40:54.003Z,91.60
2023-03-18T18:43:27.005Z,92.30
2023-03-18T18:48:35.705Z,93.20
2023-03-18T18:51:17.337Z,93.80
2023-03-18T18:53:52.924Z,94.40
2023-03-18T18:56:34.537Z,95.00
2023-03-18T18:59:25.091Z,95.50
2023-03-18T19:01:57.470Z,95.80
2023-03-18T19:07:06.465Z,96.30
2023-03-18T19:09:38.899Z,96.80
2023-03-18T19:12:16.483Z,97.30
2023-03-18T19:14:49.134Z,97.70
2023-03-18T19:17:23.375Z,98.10
2023-03-18T19:19:55.531Z,98.60
2023-03-18T19:25:00.768Z,99.40
2023-03-18T19:30:21.446Z,99.90
2023-03-18T19:32:54.249Z,99.90
2023-03-18T19:35:26.818Z,99.90
2023-03-18T19:38:00.465Z,99.90
2023-03-18T19:40:34.072Z,99.90
2023-03-18T19:43:19.509Z,99.90
2023-03-18T19:45:52.081Z,99.90
2023-03-18T19:48:29.294Z,99.90
2023-03-18T19:51:02.541Z,99.90
2023-03-18T19:53:40.819Z,99.90
2023-03-18T19:56:29.587Z,99.90
2023-03-18T19:59:02.359Z,99.90
2023-03-18T20:01:34.491Z,99.90
2023-03-18T20:04:10.639Z,99.90
2023-03-18T20:06:43.050Z,99.90
2023-03-18T20:09:15.869Z,99.90
2023-03-18T20:11:51.206Z,99.90
2023-03-18T20:14:31.303Z,99.90
2023-03-18T20:17:29.920Z,99.90
2023-03-18T20:22:38.737Z,99.90
2023-03-18T20:25:30.314Z,99.90
2023-03-18T20:28:04.568Z,99.90
2023-03-18T20:30:39.892Z,99.90
2023-03-18T20:35:47.139Z,99.90
2023-03-18T20:38:35.874Z,99.90
2023-03-18T20:41:08.151Z,99.90
2023-03-18T20:43:40.968Z,99.90
2023-03-18T20:46:14.291Z,99.90
2023-03-18T20:54:19.182Z,99.90
2023-03-18T20:59:25.163Z,99.90
2023-03-18T21:01:57.235Z,99.90
2023-03-18T21:04:30.042Z,99.90
2023-03-18T21:07:02.423Z,99.90
2023-03-18T21:09:34.867Z,99.90
2023-03-18T21:12:06.841Z,99.90
2023-03-18T21:14:39.536Z,99.90
2023-03-18T21:17:22.487Z,99.90
2023-03-18T21:20:00.745Z,99.90
2023-03-18T21:22:37.963Z,99.90
2023-03-18T21:25:24.028Z,99.90
2023-03-18T21:30:52.578Z,99.90
2023-03-18T21:33:32.591Z,99.90
2023-03-18T21:38:39.229Z,99.90
2023-03-18T21:41:31.793Z,99.90
2023-03-18T21:46:38.175Z,99.90
2023-03-18T21:54:20.552Z,99.90
2023-03-18T21:56:55.345Z,99.90
2023-03-18T21:59:28.366Z,99.90
2023-03-18T22:02:00.710Z,99.90
2023-03-18T22:04:33.437Z,99.90
2023-03-18T22:09:42.975Z,99.90
2023-03-18T22:12:26.356Z,99.90
2023-03-18T22:15:00.592Z,99.90
2023-03-18T22:17:35.196Z,99.90
2023-03-18T22:20:11.431Z,99.90
2023-03-18T22:25:37.356Z,99.90
2023-03-18T22:28:11.875Z,99.90
2023-03-18T22:30:47.573Z,99.90
2023-03-18T22:33:26.102Z,99.90
2023-03-18T22:35:59.760Z,99.90
2023-03-18T22:41:19.260Z,99.90
2023-03-18T22:46:28.376Z,99.90
2023-03-18T22:49:19.566Z,99.90
2023-03-18T22:51:51.539Z,99.90
2023-03-18T22:54:24.769Z,99.90
2023-03-18T22:59:33.778Z,99.90
2023-03-18T23:02:12.782Z,99.90
2023-03-18T23:04:48.062Z,99.90
2023-03-18T23:07:33.441Z,99.90
2023-03-18T23:10:06.477Z,99.90
2023-03-18T23:12:38.587Z,99.90
2023-03-18T23:15:21.454Z,99.90
2023-03-18T23:17:53.992Z,99.90
2023-03-18T23:20:26.752Z,99.90
2023-03-18T23:25:32.059Z,99.90
2023-03-18T23:28:04.242Z,99.90
2023-03-18T23:33:34.083Z,99.90
2023-03-18T23:38:40.399Z,99.90
2023-03-18T23:41:13.267Z,99.90
2023-03-18T23:43:47.635Z,99.90
2023-03-18T23:48:52.898Z,99.90
2023-03-18T23:56:31.819Z,99.90
2023-03-18T23:59:03.831Z,99.90
